Time;durP1;ratioP1;P1;durP2;ratioP2;P2;SDS_P1;SDS_P2;PMS_P1;PMS_P2;Temp;Humidity;BMP_temperature;BMP_pressure;BME280_temperature;BME280_humidity;BME280_pressure;Samples;Min_cycle;Max_cycle;Signal;HPM_P1;HPM_P2
2021/04/23 00:01:29;;;;;;;7.53;5.90;;;;;;;8.54;100.00;98358.09;5033437;28;20037;-75
2021/04/23 00:03:59;;;;;;;9.35;6.30;;;;;;;8.53;100.00;98364.63;5033821;28;20029;-76
2021/04/23 00:06:35;;;;;;;7.93;6.10;;;;;;;8.60;100.00;98357.00;5033134;28;20087;-75
2021/04/23 00:09:18;;;;;;;9.18;6.40;;;;;;;8.73;100.00;98354.81;5034093;28;20025;-75
2021/04/23 00:11:47;;;;;;;7.90;6.43;;;;;;;8.51;100.00;98355.09;5033943;28;20080;-75
2021/04/23 00:14:15;;;;;;;7.82;5.68;;;;;;;8.37;100.00;98341.19;5033751;28;20053;-76
2021/04/23 00:16:42;;;;;;;9.20;6.80;;;;;;;8.38;100.00;98352.91;5034184;28;20112;-75
2021/04/23 00:19:14;;;;;;;9.32;6.90;;;;;;;8.28;100.00;98352.88;5033347;28;20083;-75
2021/04/23 00:21:41;;;;;;;10.15;7.03;;;;;;;8.34;100.00;98347.16;5033951;28;20041;-74
2021/04/23 00:24:07;;;;;;;8.32;6.53;;;;;;;8.44;100.00;98358.09;5034578;28;20034;-74
2021/04/23 00:26:33;;;;;;;11.20;6.60;;;;;;;8.52;100.00;98357.53;5033825;28;20040;-73
2021/04/23 00:28:58;;;;;;;10.45;6.72;;;;;;;8.38;100.00;98351.00;5036928;28;20036;-80
2021/04/23 00:31:24;;;;;;;10.80;7.85;;;;;;;8.31;100.00;98353.16;5036565;28;20026;-79
2021/04/23 00:33:49;;;;;;;15.95;7.22;;;;;;;8.36;100.00;98361.38;5034791;28;20445;-76
2021/04/23 00:36:15;;;;;;;10.23;7.30;;;;;;;8.43;100.00;98369.25;5032682;28;20025;-74
2021/04/23 00:38:40;;;;;;;8.32;7.28;;;;;;;8.21;100.00;98358.56;5032236;28;20035;-76
2021/04/23 00:41:12;;;;;;;9.18;7.32;;;;;;;8.16;100.00;98353.13;5032390;28;20026;-74
2021/04/23 00:43:41;;;;;;;7.93;6.72;;;;;;;8.07;100.00;98360.19;5032485;28;20493;-74
2021/04/23 00:46:07;;;;;;;10.13;7.53;;;;;;;8.06;100.00;98362.09;5032146;28;20030;-76
2021/04/23 00:48:36;;;;;;;11.13;6.50;;;;;;;8.03;100.00;98368.06;5032051;28;20031;-74
2021/04/23 00:51:07;;;;;;;9.05;6.55;;;;;;;7.88;100.00;98354.41;5030876;28;20037;-77
2021/04/23 00:53:36;;;;;;;10.23;7.82;;;;;;;7.97;100.00;98360.16;5031188;28;20490;-74
2021/04/23 00:56:06;;;;;;;10.27;7.35;;;;;;;7.94;100.00;98363.41;5033205;28;20018;-76
2021/04/23 00:58:33;;;;;;;7.38;6.25;;;;;;;7.92;100.00;98371.03;5032857;28;20026;-76
2021/04/23 01:01:04;;;;;;;7.53;6.15;;;;;;;7.96;100.00;98372.13;5033257;28;20030;-75
2021/04/23 01:03:30;;;;;;;7.20;6.35;;;;;;;7.91;100.00;98377.56;5039917;28;20021;-77
2021/04/23 01:05:57;;;;;;;6.47;5.65;;;;;;;7.91;100.00;98375.66;5037113;28;20044;-78
2021/04/23 01:08:29;;;;;;;13.35;6.82;;;;;;;7.91;100.00;98391.19;5032933;28;20036;-76
2021/04/23 01:11:01;;;;;;;8.07;5.78;;;;;;;8.13;100.00;98386.34;5033166;28;20038;-76
2021/04/23 01:13:31;;;;;;;11.35;6.93;;;;;;;8.08;100.00;98389.06;5033480;28;20116;-76
2021/04/23 01:16:02;;;;;;;8.40;5.60;;;;;;;8.03;100.00;98391.75;5032426;28;20030;-76
2021/04/23 01:18:28;;;;;;;9.77;5.60;;;;;;;7.92;100.00;98385.50;5034756;28;20120;-76
2021/04/23 01:21:16;;;;;;;8.15;6.63;;;;;;;7.95;100.00;98397.75;5035273;28;20490;-75
2021/04/23 01:23:45;;;;;;;9.52;6.20;;;;;;;7.94;100.00;98407.00;5035734;28;20033;-77
2021/04/23 01:26:12;;;;;;;8.25;5.72;;;;;;;8.03;100.00;98398.03;5035027;28;20052;-76
2021/04/23 01:28:38;;;;;;;9.57;6.70;;;;;;;8.14;100.00;98408.97;5033788;28;20474;-75
2021/04/23 01:31:08;;;;;;;7.57;5.75;;;;;;;8.05;100.00;98408.66;5033271;28;20022;-76
2021/04/23 01:33:37;;;;;;;8.07;6.18;;;;;;;8.17;100.00;98409.25;5031843;28;20044;-77
2021/04/23 01:36:04;;;;;;;10.40;5.60;;;;;;;8.08;100.00;98414.38;5032598;28;20037;-77
2021/04/23 01:38:29;;;;;;;6.03;5.18;;;;;;;7.92;100.00;98404.56;5031988;28;20063;-76
2021/04/23 01:40:55;;;;;;;6.07;5.32;;;;;;;7.92;100.00;98418.16;5033119;28;20022;-76
2021/04/23 01:43:20;;;;;;;7.45;5.50;;;;;;;7.79;100.00;98417.84;5034349;28;20037;-76
2021/04/23 01:45:46;;;;;;;5.85;4.53;;;;;;;7.75;100.00;98431.16;5037006;28;20017;-76
2021/04/23 01:48:13;;;;;;;12.98;6.43;;;;;;;7.80;100.00;98427.66;5035136;28;20029;-74
2021/04/23 01:50:40;;;;;;;10.45;6.80;;;;;;;7.85;100.00;98428.47;5030579;28;20029;-77
2021/04/23 01:53:06;;;;;;;10.93;6.05;;;;;;;8.06;100.00;98432.09;5031451;28;20481;-74
2021/04/23 01:55:32;;;;;;;10.23;7.07;;;;;;;8.12;100.00;98430.19;5031674;28;20037;-76
2021/04/23 01:57:58;;;;;;;7.75;5.13;;;;;;;8.26;100.00;98434.06;5031358;28;20021;-74
2021/04/23 02:00:36;;;;;;;8.55;5.82;;;;;;;8.20;100.00;98438.69;5031373;28;20025;-76
2021/04/23 02:03:07;;;;;;;6.13;5.00;;;;;;;8.19;100.00;98431.59;5031268;28;20083;-76
2021/04/23 02:05:33;;;;;;;5.97;4.75;;;;;;;8.23;99.96;98429.97;5031416;28;20033;-76
2021/04/23 02:07:59;;;;;;;5.32;4.40;;;;;;;8.17;99.44;98433.78;5031557;28;20018;-76
2021/04/23 02:10:29;;;;;;;5.22;4.40;;;;;;;8.16;99.76;98437.59;5031631;28;20037;-74
2021/04/23 02:12:56;;;;;;;4.22;3.72;;;;;;;8.07;99.85;98440.00;5031221;28;20033;-74
2021/04/23 02:15:24;;;;;;;4.47;4.05;;;;;;;8.03;100.00;98438.91;5031265;28;20014;-75
2021/04/23 02:17:50;;;;;;;7.38;5.38;;;;;;;8.19;100.00;98447.13;5031554;28;20151;-75
2021/04/23 02:20:31;;;;;;;6.88;4.07;;;;;;;8.18;99.90;98440.03;5031208;28;20038;-76
2021/04/23 02:22:58;;;;;;;5.30;4.30;;;;;;;8.27;99.64;98450.13;5029992;28;20037;-77
2021/04/23 02:25:25;;;;;;;5.68;4.53;;;;;;;8.29;98.39;98452.63;5030877;28;20017;-76
2021/04/23 02:27:51;;;;;;;5.32;4.25;;;;;;;8.31;98.62;98443.09;5029667;28;20371;-76
2021/04/23 02:30:22;;;;;;;5.47;3.58;;;;;;;8.37;99.31;98450.19;5030897;28;20025;-76
2021/04/23 02:32:47;;;;;;;8.27;5.43;;;;;;;8.58;98.67;98453.81;5031590;28;20022;-77
2021/04/23 02:35:15;;;;;;;6.00;4.43;;;;;;;8.60;97.81;98457.06;5031584;28;20426;-75
2021/04/23 02:37:40;;;;;;;5.22;4.10;;;;;;;8.39;98.45;98453.50;5031420;28;20048;-75
2021/04/23 02:40:08;;;;;;;5.10;4.40;;;;;;;8.28;99.24;98459.16;5031322;28;20462;-74
2021/04/23 02:42:35;;;;;;;6.63;3.72;;;;;;;8.21;99.84;98466.72;5031120;28;20041;-74
2021/04/23 02:45:01;;;;;;;5.68;4.82;;;;;;;8.15;100.00;98463.19;5029698;28;20036;-76
2021/04/23 02:47:26;;;;;;;11.45;5.97;;;;;;;8.13;100.00;98462.63;5031295;28;20025;-76
2021/04/23 02:49:52;;;;;;;6.72;5.00;;;;;;;8.27;99.93;98468.41;5034360;28;20083;-75
2021/04/23 02:52:18;;;;;;;5.30;4.20;;;;;;;8.30;99.21;98476.88;5035083;28;20501;-76
2021/04/23 02:54:44;;;;;;;9.15;4.70;;;;;;;8.36;98.78;98475.84;5035186;28;20692;-75
2021/04/23 02:57:10;;;;;;;5.97;4.05;;;;;;;8.35;98.72;98467.91;5034542;28;20029;-75
2021/04/23 02:59:36;;;;;;;8.52;4.68;;;;;;;8.42;98.17;98480.22;5035186;28;20047;-76
2021/04/23 03:02:01;;;;;;;6.07;4.30;;;;;;;8.36;98.37;98485.91;5035137;28;20021;-76
2021/04/23 03:04:27;;;;;;;5.57;5.03;;;;;;;8.45;98.56;98485.13;5035240;28;20071;-76
2021/04/23 03:06:54;;;;;;;6.47;5.05;;;;;;;8.44;98.69;98482.66;5033892;28;20385;-77
2021/04/23 03:09:19;;;;;;;6.57;4.85;;;;;;;8.48;99.27;98481.88;5034412;28;20075;-76
2021/04/23 03:11:45;;;;;;;7.13;5.03;;;;;;;8.51;99.58;98486.78;5026566;28;20026;-75
2021/04/23 03:14:11;;;;;;;7.22;5.93;;;;;;;8.47;99.14;98488.41;5013647;28;20020;-74
2021/04/23 03:16:40;;;;;;;10.70;5.50;;;;;;;8.49;99.09;98496.28;5024848;28;20095;-74
2021/04/23 03:19:13;;;;;;;7.03;5.65;;;;;;;8.42;98.80;98490.28;5039266;28;20071;-80
2021/04/23 03:21:40;;;;;;;8.88;5.57;;;;;;;8.58;98.20;98494.72;5034713;28;20095;-75
2021/04/23 03:24:07;;;;;;;10.13;6.78;;;;;;;8.43;98.05;98487.28;5034056;28;20065;-76
2021/04/23 03:26:33;;;;;;;7.45;5.85;;;;;;;8.45;98.26;98500.66;5033393;28;20053;-76
2021/04/23 03:28:58;;;;;;;7.28;6.28;;;;;;;8.43;97.23;98490.00;5022735;28;20062;-76
2021/04/23 03:31:24;;;;;;;6.47;5.70;;;;;;;8.49;96.43;98501.75;5013232;28;20029;-75
2021/04/23 03:33:49;;;;;;;6.18;5.20;;;;;;;8.64;95.61;98514.63;5013578;28;20022;-75
2021/04/23 03:36:15;;;;;;;7.25;5.38;;;;;;;8.53;95.23;98516.47;5013910;28;20022;-76
2021/04/23 03:38:44;;;;;;;6.95;5.28;;;;;;;8.55;95.48;98512.41;5013369;28;20076;-75
2021/04/23 03:41:14;;;;;;;7.13;5.20;;;;;;;8.58;95.28;98520.03;5013235;28;20034;-77
2021/04/23 03:43:39;;;;;;;8.27;5.20;;;;;;;8.63;93.84;98523.88;5013514;28;20133;-75
2021/04/23 03:46:06;;;;;;;6.78;5.38;;;;;;;8.67;93.50;98514.91;5013694;28;20117;-75
2021/04/23 03:48:33;;;;;;;7.00;5.57;;;;;;;8.64;93.90;98523.63;5013807;28;20480;-76
2021/04/23 03:50:59;;;;;;;8.98;5.50;;;;;;;8.60;94.27;98526.06;5013990;28;20459;-75
2021/04/23 03:53:25;;;;;;;9.10;5.95;;;;;;;8.44;93.80;98529.81;5012748;28;20552;-75
2021/04/23 03:55:53;;;;;;;8.98;5.93;;;;;;;8.32;94.37;98522.97;5014302;28;20026;-76
2021/04/23 03:58:20;;;;;;;10.75;5.60;;;;;;;8.22;94.19;98531.88;5013014;28;20049;-75
2021/04/23 04:00:49;;;;;;;8.52;6.22;;;;;;;8.29;94.08;98534.41;5014036;28;20072;-77
2021/04/23 04:03:15;;;;;;;6.85;5.78;;;;;;;8.36;93.74;98545.88;5015984;28;20037;-76
2021/04/23 04:05:42;;;;;;;8.27;5.80;;;;;;;8.45;93.93;98544.28;5029289;28;20025;-80
2021/04/23 04:08:07;;;;;;;10.30;6.28;;;;;;;8.41;93.08;98549.44;5037931;28;20056;-79
2021/04/23 04:10:33;;;;;;;8.43;6.15;;;;;;;8.33;93.50;98546.41;5033104;28;20029;-76
2021/04/23 04:12:59;;;;;;;8.20;6.32;;;;;;;8.45;92.93;98549.72;5033043;28;20028;-76
2021/04/23 04:15:26;;;;;;;6.93;5.95;;;;;;;8.45;93.12;98547.81;5032585;28;20385;-74
2021/04/23 04:17:52;;;;;;;11.65;6.70;;;;;;;8.45;92.88;98549.72;5048141;28;20068;-76
2021/04/23 04:20:19;;;;;;;7.82;6.13;;;;;;;8.42;92.24;98553.00;5032310;28;20045;-76
2021/04/23 04:22:45;;;;;;;10.60;6.47;;;;;;;8.49;91.38;98548.09;5034066;28;20117;-75
2021/04/23 04:25:15;;;;;;;9.73;7.57;;;;;;;8.52;90.91;98551.09;5031517;28;20033;-76
2021/04/23 04:27:41;;;;;;;13.98;7.43;;;;;;;8.59;91.39;98559.84;5031066;28;20529;-76
2021/04/23 04:30:08;;;;;;;10.02;6.97;;;;;;;8.72;89.90;98563.16;5031975;28;20109;-76
2021/04/23 04:32:35;;;;;;;10.32;7.45;;;;;;;8.72;89.73;98560.44;5034046;28;20033;-79
2021/04/23 04:35:00;;;;;;;8.82;6.32;;;;;;;8.82;89.33;98579.56;5041463;28;20025;-83
2021/04/23 04:37:26;;;;;;;7.25;6.38;;;;;;;8.95;88.84;98574.44;5032741;28;20026;-73
2021/04/23 04:39:51;;;;;;;10.55;7.72;;;;;;;8.92;88.89;98576.88;5030943;28;20017;-83
2021/04/23 04:42:17;;;;;;;11.27;6.82;;;;;;;8.85;88.14;98571.66;5031577;28;20055;-81
2021/04/23 04:44:44;;;;;;;8.45;6.85;;;;;;;9.00;87.55;98589.97;5031475;28;20468;-74
2021/04/23 04:47:10;;;;;;;10.68;7.07;;;;;;;8.93;88.33;98587.50;5031706;28;20536;-78
2021/04/23 04:49:35;;;;;;;11.02;6.80;;;;;;;8.98;86.88;98600.34;5020127;28;20025;-76
2021/04/23 04:52:01;;;;;;;9.43;7.00;;;;;;;8.98;86.74;98600.34;5026171;28;20025;-76
2021/04/23 04:54:26;;;;;;;9.63;7.43;;;;;;;9.03;86.42;98609.38;5029233;28;20053;-78
2021/04/23 04:56:52;;;;;;;8.70;7.07;;;;;;;9.03;85.30;98611.25;5026490;28;20025;-76
2021/04/23 04:59:20;;;;;;;8.70;6.68;;;;;;;8.96;84.82;98619.69;5028725;28;20029;-76
2021/04/23 05:01:45;;;;;;;13.20;7.72;;;;;;;8.95;84.77;98617.25;5027151;28;20025;-74
2021/04/23 05:04:11;;;;;;;9.85;7.28;;;;;;;8.90;83.83;98625.41;5028676;28;20037;-75
2021/04/23 05:06:39;;;;;;;13.52;7.63;;;;;;;8.99;83.67;98626.56;5029975;28;20061;-76
2021/04/23 05:09:05;;;;;;;13.30;8.13;;;;;;;8.93;84.07;98627.59;5031858;28;20037;-76
2021/04/23 05:11:30;;;;;;;11.68;8.20;;;;;;;9.08;82.67;98641.31;5028688;28;20056;-75
2021/04/23 05:13:57;;;;;;;12.68;8.18;;;;;;;9.09;82.77;98642.94;5029197;28;20017;-75
2021/04/23 05:16:23;;;;;;;10.38;7.65;;;;;;;8.94;81.78;98648.34;5029237;28;20116;-75
2021/04/23 05:18:48;;;;;;;10.55;7.30;;;;;;;8.90;82.09;98649.97;5029318;28;20104;-75
2021/04/23 05:21:14;;;;;;;13.02;7.22;;;;;;;8.85;81.24;98647.22;5030374;28;20045;-75
2021/04/23 05:23:39;;;;;;;16.58;8.55;;;;;;;8.66;82.62;98651.50;5031745;28;20030;-75
2021/04/23 05:26:06;;;;;;;15.48;8.20;;;;;;;8.74;81.57;98654.53;5031142;28;20079;-76
2021/04/23 05:28:31;;;;;;;9.27;6.97;;;;;;;8.78;81.08;98660.28;5031748;28;20521;-75
2021/04/23 05:30:56;;;;;;;9.15;7.20;;;;;;;8.82;80.85;98664.13;5031681;28;20028;-75
2021/04/23 05:33:22;;;;;;;15.02;9.00;;;;;;;8.72;80.20;98642.25;5032265;28;20052;-78
2021/04/23 05:35:47;;;;;;;13.55;7.70;;;;;;;9.02;80.01;98666.94;5031701;28;20405;-75
2021/04/23 05:38:13;;;;;;;14.82;6.82;;;;;;;9.01;78.35;98673.47;5030920;28;20112;-75
2021/04/23 05:40:45;;;;;;;11.38;7.20;;;;;;;9.13;77.67;98669.44;5030732;28;20024;-76
2021/04/23 05:43:12;;;;;;;8.27;7.07;;;;;;;9.30;77.13;98674.69;5029192;28;20025;-77
2021/04/23 05:45:40;;;;;;;15.68;6.60;;;;;;;9.18;75.92;98678.72;5029503;28;20124;-75
2021/04/23 05:48:07;;;;;;;12.95;7.47;;;;;;;9.16;75.41;98687.19;5029642;28;20030;-75
2021/04/23 05:50:32;;;;;;;12.32;7.80;;;;;;;9.19;74.79;98686.63;5028041;28;22016;-75
2021/04/23 05:52:58;;;;;;;10.52;6.68;;;;;;;9.33;74.53;98684.22;5029659;28;20013;-75
2021/04/23 05:55:25;;;;;;;9.43;6.90;;;;;;;9.39;74.09;98694.91;5029151;28;20489;-74
2021/04/23 05:57:56;;;;;;;10.82;6.75;;;;;;;9.48;72.96;98695.19;5028102;28;20118;-75
2021/04/23 06:00:24;;;;;;;8.70;6.05;;;;;;;9.53;72.58;98703.38;5030131;28;20030;-75
2021/04/23 06:02:50;;;;;;;16.23;8.40;;;;;;;9.58;73.20;98696.03;5029221;28;20029;-75
2021/04/23 06:05:17;;;;;;;13.90;8.30;;;;;;;9.55;71.38;98688.34;5030768;28;20033;-75
2021/04/23 06:07:43;;;;;;;8.55;5.18;;;;;;;9.56;68.78;98687.28;5030444;28;20034;-75
2021/04/23 06:10:11;;;;;;;9.77;7.18;;;;;;;9.83;70.25;98702.63;5030619;28;20500;-75
2021/04/23 06:12:36;;;;;;;13.15;7.55;;;;;;;10.07;69.55;98692.78;5030433;28;20033;-76
2021/04/23 06:15:05;;;;;;;16.13;7.30;;;;;;;10.09;68.43;98706.97;5038162;28;20237;-77
2021/04/23 06:17:31;;;;;;;11.05;7.70;;;;;;;9.91;68.91;98688.41;5034177;28;20418;-75
2021/04/23 06:19:57;;;;;;;12.68;8.93;;;;;;;9.91;68.30;98702.88;5029577;28;20084;-75
2021/04/23 06:22:22;;;;;;;9.55;5.68;;;;;;;10.02;67.90;98698.25;5030183;28;20103;-74
2021/04/23 06:24:48;;;;;;;11.70;6.50;;;;;;;10.33;66.70;98713.59;5034341;28;20025;-75
2021/04/23 06:27:14;;;;;;;12.65;6.32;;;;;;;10.77;67.08;98718.44;5034273;28;20136;-74
2021/04/23 06:29:39;;;;;;;9.90;6.05;;;;;;;11.06;65.60;98709.28;5034641;28;20373;-75
2021/04/23 06:32:05;;;;;;;10.25;7.05;;;;;;;11.21;64.73;98724.84;5034373;28;20052;-74
2021/04/23 06:34:30;;;;;;;9.07;5.88;;;;;;;10.87;64.82;98721.13;5034922;28;20021;-75
2021/04/23 06:36:56;;;;;;;12.90;5.97;;;;;;;10.74;63.36;98703.38;5032957;28;20469;-74
2021/04/23 06:39:21;;;;;;;8.27;6.25;;;;;;;11.09;62.86;98725.16;5034224;28;20041;-76
2021/04/23 06:41:48;;;;;;;11.02;5.97;;;;;;;11.24;62.67;98725.09;5034672;28;20489;-75
2021/04/23 06:44:14;;;;;;;8.23;5.38;;;;;;;11.52;61.17;98723.59;5034522;28;20025;-75
2021/04/23 06:46:40;;;;;;;12.35;6.10;;;;;;;11.59;59.62;98713.13;5034314;28;20056;-75
2021/04/23 06:49:06;;;;;;;10.00;6.47;;;;;;;11.71;59.48;98718.31;5034062;28;20540;-75
2021/04/23 06:51:32;;;;;;;8.40;4.95;;;;;;;11.66;55.57;98715.56;5033598;28;20033;-75
2021/04/23 06:53:57;;;;;;;8.90;4.65;;;;;;;11.86;54.64;98726.44;5034182;28;20056;-77
2021/04/23 06:56:23;;;;;;;8.98;5.50;;;;;;;12.15;55.67;98723.75;5035243;28;20057;-75
2021/04/23 06:58:48;;;;;;;9.48;5.18;;;;;;;11.96;56.03;98715.41;5034180;28;20515;-76
2021/04/23 07:01:16;;;;;;;7.97;4.90;;;;;;;12.30;54.39;98729.94;5033939;28;20047;-76
2021/04/23 07:03:42;;;;;;;7.60;5.38;;;;;;;12.74;54.50;98732.53;5034505;28;20075;-75
2021/04/23 07:06:08;;;;;;;9.73;3.83;;;;;;;12.70;48.70;98741.63;5033787;28;20033;-75
2021/04/23 07:08:33;;;;;;;7.50;4.85;;;;;;;12.62;48.09;98728.56;5033694;28;20116;-76
2021/04/23 07:10:59;;;;;;;7.55;3.65;;;;;;;12.91;46.65;98710.09;5033787;28;20487;-75
2021/04/23 07:13:25;;;;;;;8.27;4.30;;;;;;;12.99;46.51;98714.97;5033418;28;20083;-75
2021/04/23 07:15:50;;;;;;;8.45;4.65;;;;;;;13.56;48.50;98725.00;5033453;28;20021;-76
2021/04/23 07:18:16;;;;;;;17.05;4.57;;;;;;;14.37;47.56;98729.31;5033486;28;20025;-76
2021/04/23 07:20:42;;;;;;;24.50;6.07;;;;;;;13.85;48.32;98722.91;5033374;28;20045;-75
2021/04/23 07:23:07;;;;;;;7.70;4.32;;;;;;;15.44;45.06;98724.19;5033385;28;20500;-76
2021/04/23 07:25:33;;;;;;;8.20;4.13;;;;;;;15.38;45.34;98719.13;5032965;28;20036;-76
2021/04/23 07:27:59;;;;;;;6.88;4.53;;;;;;;15.43;44.65;98724.53;5032112;28;20124;-75
2021/04/23 07:30:30;;;;;;;6.60;4.32;;;;;;;15.09;45.10;98721.38;5033535;28;20063;-75
2021/04/23 07:32:57;;;;;;;8.18;4.00;;;;;;;15.79;43.24;98724.59;5033176;28;20041;-76
2021/04/23 07:35:23;;;;;;;9.82;4.18;;;;;;;15.12;44.26;98732.59;5032181;28;20397;-75
2021/04/23 07:37:49;;;;;;;9.10;4.75;;;;;;;14.42;46.21;98729.19;5031495;28;20034;-76
2021/04/23 07:40:17;;;;;;;5.70;4.65;;;;;;;14.32;46.09;98723.84;5033034;28;20132;-75
2021/04/23 07:42:42;;;;;;;10.82;4.85;;;;;;;14.50;45.96;98731.28;5031615;28;20036;-75
2021/04/23 07:45:09;;;;;;;8.57;4.72;;;;;;;14.92;45.04;98739.31;5032618;28;20037;-76
2021/04/23 07:47:35;;;;;;;7.70;4.43;;;;;;;15.51;42.65;98729.34;5032950;28;20028;-76
2021/04/23 07:50:01;;;;;;;7.45;3.85;;;;;;;16.75;40.84;98736.91;5032614;28;20118;-75
2021/04/23 07:52:27;;;;;;;9.73;4.15;;;;;;;17.08;39.14;98724.38;5032742;28;20044;-75
2021/04/23 07:54:56;;;;;;;9.50;4.00;;;;;;;17.95;37.52;98742.88;5032638;28;21262;-74
2021/04/23 07:57:21;;;;;;;5.57;3.63;;;;;;;16.97;38.22;98736.88;5032565;28;20038;-76
2021/04/23 07:59:47;;;;;;;8.65;3.95;;;;;;;16.72;39.43;98732.00;5031258;28;20102;-75
2021/04/23 08:02:12;;;;;;;6.93;3.83;;;;;;;17.49;37.61;98737.88;5032515;28;20086;-75
2021/04/23 08:04:39;;;;;;;4.93;3.28;;;;;;;18.37;35.89;98732.97;5034563;28;20477;-76
2021/04/23 08:07:07;;;;;;;5.32;3.70;;;;;;;18.56;34.12;98727.09;5032314;28;20092;-77
2021/04/23 08:09:34;;;;;;;7.47;3.88;;;;;;;18.66;34.75;98729.53;5032309;28;20539;-75
2021/04/23 08:12:00;;;;;;;8.10;4.10;;;;;;;19.58;32.70;98736.22;5032366;28;20033;-75
2021/04/23 08:14:26;;;;;;;6.28;3.05;;;;;;;19.47;32.02;98737.75;5032400;28;20026;-73
2021/04/23 08:16:51;;;;;;;8.32;3.47;;;;;;;18.93;33.07;98736.63;5032328;28;20104;-71
2021/04/23 08:19:17;;;;;;;8.02;4.43;;;;;;;18.44;32.82;98721.38;5032395;28;20120;-73
2021/04/23 08:21:42;;;;;;;7.95;3.90;;;;;;;19.42;31.47;98732.41;5032130;28;20102;-73
2021/04/23 08:24:08;;;;;;;5.95;3.92;;;;;;;18.81;31.95;98730.97;5031376;28;20416;-74
2021/04/23 08:26:35;;;;;;;8.43;3.92;;;;;;;18.47;33.21;98720.72;5033473;28;20064;-73
2021/04/23 08:29:00;;;;;;;5.35;3.45;;;;;;;18.76;32.31;98712.56;5034065;28;20393;-75
2021/04/23 08:31:26;;;;;;;9.90;4.47;;;;;;;20.49;30.16;98719.53;5034278;28;20033;-75
2021/04/23 08:33:51;;;;;;;9.70;4.43;;;;;;;19.10;31.78;98718.00;5036427;28;20032;-73
2021/04/23 08:36:17;;;;;;;8.95;3.65;;;;;;;19.70;30.72;98711.34;5032216;28;20116;-74
2021/04/23 08:38:42;;;;;;;7.82;3.92;;;;;;;20.60;29.37;98714.38;5031677;28;20116;-73
2021/04/23 08:41:08;;;;;;;5.63;3.55;;;;;;;20.90;29.21;98713.06;5030656;28;20029;-73
2021/04/23 08:43:35;;;;;;;8.18;4.20;;;;;;;20.34;29.05;98711.03;5031961;28;20390;-72
2021/04/23 08:46:00;;;;;;;6.93;3.17;;;;;;;20.93;28.76;98717.94;5031414;28;20029;-74
2021/04/23 08:48:27;;;;;;;9.95;4.28;;;;;;;20.28;29.19;98711.25;5031963;28;20541;-73
2021/04/23 08:50:53;;;;;;;6.38;3.67;;;;;;;20.51;29.39;98716.44;5031386;28;20021;-71
2021/04/23 08:53:20;;;;;;;7.25;4.80;;;;;;;19.48;31.35;98700.53;5031889;28;20049;-72
2021/04/23 08:55:46;;;;;;;7.18;3.67;;;;;;;20.42;29.63;98712.94;5031617;28;20064;-73
2021/04/23 08:58:14;;;;;;;8.05;4.10;;;;;;;19.89;31.01;98710.88;5030242;28;20593;-74
2021/04/23 09:00:41;;;;;;;8.50;4.57;;;;;;;20.11;30.32;98702.22;5031370;28;20469;-75
2021/04/23 09:03:11;;;;;;;7.05;3.80;;;;;;;19.77;31.26;98708.81;5031463;28;20068;-74
2021/04/23 09:05:38;;;;;;;9.43;4.32;;;;;;;19.53;31.08;98708.66;5031799;28;20053;-73
2021/04/23 09:08:06;;;;;;;9.20;3.55;;;;;;;19.64;30.59;98707.13;5031628;28;20036;-74
2021/04/23 09:10:35;;;;;;;6.70;3.40;;;;;;;21.14;29.35;98713.16;5031278;28;20028;-72
2021/04/23 09:13:03;;;;;;;6.95;4.00;;;;;;;21.99;27.77;98710.34;5031754;28;20025;-72
2021/04/23 09:15:29;;;;;;;9.82;4.22;;;;;;;20.57;29.15;98696.44;5031801;28;20053;-72
2021/04/23 09:18:14;;;;;;;4.40;3.33;;;;;;;21.76;28.50;98706.44;5032898;28;20504;-73
2021/04/23 09:20:42;;;;;;;7.03;3.77;;;;;;;20.73;28.39;98707.72;5034196;28;20104;-72
2021/04/23 09:23:11;;;;;;;5.75;3.78;;;;;;;20.24;27.25;98709.44;5031454;28;20061;-74
2021/04/23 09:25:41;;;;;;;6.40;4.00;;;;;;;;;;5030629;28;20033;-74
2021/04/23 09:28:08;;;;;;;6.22;3.80;;;;;;;20.97;27.84;98696.63;5030706;28;20417;-73
2021/04/23 09:30:33;;;;;;;8.32;4.82;;;;;;;21.40;27.35;98698.91;5031177;28;20037;-72
2021/04/23 09:32:59;;;;;;;6.82;4.00;;;;;;;20.87;27.46;98691.50;5031272;28;20045;-74
2021/04/23 09:35:24;;;;;;;4.75;3.92;;;;;;;21.74;26.75;98700.41;5031593;28;20096;-73
2021/04/23 09:37:56;;;;;;;8.40;4.68;;;;;;;20.68;27.88;98692.03;5030887;28;20029;-73
2021/04/23 09:40:24;;;;;;;9.55;4.80;;;;;;;20.92;27.66;98687.72;5030992;28;20053;-74
2021/04/23 09:42:51;;;;;;;4.95;3.72;;;;;;;20.48;29.47;98692.09;5031111;28;20366;-74
2021/04/23 09:45:18;;;;;;;5.43;3.38;;;;;;;21.85;27.36;98684.81;5032158;28;20071;-76
2021/04/23 09:47:44;;;;;;;6.30;3.78;;;;;;;21.09;28.45;98682.75;5036356;28;20052;-76
2021/04/23 09:50:11;;;;;;;8.02;3.67;;;;;;;21.32;27.87;98686.72;5033296;28;20014;-75
2021/04/23 09:52:51;;;;;;;5.13;3.90;;;;;;;20.79;28.66;98675.75;5031122;28;20112;-73
2021/04/23 09:55:19;;;;;;;11.15;4.63;;;;;;;21.66;27.39;98677.06;5030997;28;20017;-73
2021/04/23 09:58:14;;;;;;;7.00;3.65;;;;;;;22.42;25.88;98673.41;5029201;28;20037;-74
2021/04/23 10:00:44;;;;;;;6.75;3.30;;;;;;;22.65;25.16;98668.03;5030115;28;20037;-74
2021/04/23 10:03:10;;;;;;;7.95;3.58;;;;;;;23.36;25.38;98667.94;5030808;28;20053;-74
2021/04/23 10:05:41;;;;;;;6.85;4.78;;;;;;;21.35;27.14;98672.13;5031724;28;20035;-73
2021/04/23 10:08:33;;;;;;;11.30;4.70;;;;;;;20.74;28.81;98664.81;5031327;28;20032;-76
2021/04/23 10:10:58;;;;;;;5.55;3.53;;;;;;;22.70;26.29;98663.06;5031387;28;20060;-72
2021/04/23 10:13:29;;;;;;;5.38;3.53;;;;;;;22.34;26.75;98657.63;5030551;28;20049;-71
2021/04/23 10:15:54;;;;;;;9.00;4.32;;;;;;;21.51;26.93;98660.28;5030958;28;20483;-72
2021/04/23 10:18:20;;;;;;;8.02;4.22;;;;;;;22.24;26.22;98660.94;5030573;28;20037;-73
2021/04/23 10:20:48;;;;;;;7.65;3.60;;;;;;;22.45;26.65;98658.75;5030061;28;20056;-71
2021/04/23 10:23:17;;;;;;;9.57;5.10;;;;;;;21.46;26.68;98652.94;5030187;28;20462;-72
2021/04/23 10:25:43;;;;;;;5.65;4.30;;;;;;;20.41;27.88;98650.16;5030272;28;20048;-74
2021/04/23 10:28:11;;;;;;;7.18;4.57;;;;;;;20.80;27.58;98646.75;5030460;28;20480;-73
2021/04/23 10:30:42;;;;;;;5.68;3.83;;;;;;;22.22;25.58;98646.53;5030251;28;20029;-73
2021/04/23 10:33:10;;;;;;;5.85;3.65;;;;;;;22.40;25.11;98648.66;5030752;28;20539;-74
2021/04/23 10:35:39;;;;;;;6.45;4.05;;;;;;;20.81;26.75;98640.03;5030579;28;20802;-74
2021/04/23 10:38:10;;;;;;;6.40;4.25;;;;;;;21.20;26.80;98638.59;5030349;28;20030;-73
2021/04/23 10:40:37;;;;;;;4.03;3.22;;;;;;;21.28;26.10;98629.31;5030480;28;20033;-74
2021/04/23 10:43:15;;;;;;;7.15;4.68;;;;;;;20.78;27.33;98627.66;5030180;28;20509;-73
2021/04/23 10:45:50;;;;;;;7.32;4.38;;;;;;;21.44;26.09;98627.44;5030353;28;20113;-74
2021/04/23 10:48:15;;;;;;;4.50;3.60;;;;;;;21.18;26.60;98630.59;5031868;28;20017;-74
2021/04/23 10:50:49;;;;;;;4.07;3.20;;;;;;;20.66;27.74;98613.72;5032781;28;20827;-75
2021/04/23 10:53:31;;;;;;;8.73;3.30;;;;;;;19.57;28.86;98612.47;5030360;28;20052;-73
2021/04/23 10:56:01;;;;;;;5.47;4.35;;;;;;;17.78;32.25;98611.97;5030181;28;20055;-74
2021/04/23 10:58:29;;;;;;;6.25;4.72;;;;;;;17.21;33.17;98603.75;5030147;28;20025;-74
2021/04/23 11:00:57;;;;;;;9.65;4.68;;;;;;;16.91;33.19;98597.19;5030220;28;20029;-74
2021/04/23 11:03:33;;;;;;;7.10;5.05;;;;;;;16.82;33.35;98593.56;5030456;28;20029;-73
2021/04/23 11:06:05;;;;;;;5.82;4.30;;;;;;;17.31;32.69;98583.25;5030726;28;20389;-74
2021/04/23 11:08:36;;;;;;;6.93;4.72;;;;;;;17.21;32.68;98586.34;5029901;28;20029;-74
2021/04/23 11:11:01;;;;;;;6.60;3.30;;;;;;;18.12;31.72;98584.22;5032865;28;20021;-74
2021/04/23 11:13:37;;;;;;;5.90;3.75;;;;;;;17.84;32.02;98588.50;5033547;28;20079;-71
2021/04/23 11:16:18;;;;;;;6.20;3.67;;;;;;;17.28;32.27;98581.97;5033813;28;20129;-75
2021/04/23 11:19:16;;;;;;;4.78;3.67;;;;;;;17.47;32.70;98589.97;5033427;28;20450;-73
2021/04/23 11:21:42;;;;;;;5.97;3.72;;;;;;;17.12;31.99;98587.16;5033427;28;20490;-75
2021/04/23 11:24:19;;;;;;;3.97;3.42;;;;;;;17.58;31.51;98563.63;5033663;28;20103;-73
2021/04/23 11:29:26;;;;;;;5.15;3.72;;;;;;;17.88;31.96;98564.59;5033405;28;20028;-74
2021/04/23 11:32:10;;;;;;;5.85;3.30;;;;;;;18.38;30.88;98564.78;5033098;28;20022;-74
2021/04/23 11:34:57;;;;;;;7.57;4.00;;;;;;;17.67;31.64;98559.69;5033424;28;20036;-74
2021/04/23 11:37:46;;;;;;;10.85;4.50;;;;;;;17.15;31.70;98552.50;5032212;28;20556;-75
2021/04/23 11:40:25;;;;;;;5.35;3.83;;;;;;;16.92;31.53;98559.28;5029830;28;20068;-76